Time;durP1;ratioP1;P1;durP2;ratioP2;P2;SDS_P1;SDS_P2;PMS_P1;PMS_P2;Temp;Humidity;BMP_temperature;BMP_pressure;BME280_temperature;BME280_humidity;BME280_pressure;Samples;Min_cycle;Max_cycle;Signal;HPM_P1;HPM_P2
2020/12/10 00:02:21;;;;;;;24.77;11.70;;;;;;;-0.04;94.85;95952.31;4937104;28;20591;-68
2020/12/10 00:04:47;;;;;;;23.05;11.13;;;;;;;-0.02;95.37;95959.00;4943247;28;20047;-67
2020/12/10 00:07:12;;;;;;;25.15;11.82;;;;;;;-0.03;95.68;95962.00;4938231;28;20051;-69
2020/12/10 00:09:38;;;;;;;23.10;11.65;;;;;;;-0.06;96.21;95959.94;4942563;28;20636;-67
2020/12/10 00:12:03;;;;;;;25.23;12.02;;;;;;;-0.08;95.77;95954.06;4940468;28;20043;-66
2020/12/10 00:14:29;;;;;;;25.38;11.43;;;;;;;-0.08;96.11;95952.16;4941658;28;20047;-67
2020/12/10 00:16:55;;;;;;;29.40;12.68;;;;;;;-0.14;96.75;95948.06;4942951;28;20051;-68
2020/12/10 00:19:20;;;;;;;27.60;12.80;;;;;;;-0.18;96.59;95940.91;4954718;28;20054;-67
2020/12/10 00:21:45;;;;;;;27.55;12.10;;;;;;;-0.23;96.73;95939.97;4959938;28;20094;-67
2020/12/10 00:24:11;;;;;;;33.38;13.07;;;;;;;-0.30;97.36;95939.66;4937565;28;20472;-68
2020/12/10 00:26:36;;;;;;;29.30;14.25;;;;;;;-0.33;97.31;95934.09;4941452;28;20051;-67
2020/12/10 00:29:02;;;;;;;33.97;14.57;;;;;;;-0.37;97.59;95925.88;4939706;28;20160;-68
2020/12/10 00:31:27;;;;;;;32.53;13.52;;;;;;;-0.33;97.95;95923.34;4938834;28;20562;-68
2020/12/10 00:33:52;;;;;;;28.55;13.30;;;;;;;-0.30;97.59;95920.03;4939611;28;20047;-67
2020/12/10 00:36:18;;;;;;;31.40;14.27;;;;;;;-0.25;97.87;95923.34;4938668;28;20508;-68
2020/12/10 00:38:43;;;;;;;27.52;12.82;;;;;;;-0.12;97.50;95912.75;4943037;28;20047;-68
2020/12/10 00:41:09;;;;;;;28.88;12.63;;;;;;;-0.03;97.57;95917.00;4938261;28;20069;-68
2020/12/10 00:43:34;;;;;;;24.52;13.02;;;;;;;0.08;97.08;95909.41;4941944;28;20044;-66
2020/12/10 00:46:06;;;;;;;26.33;12.85;;;;;;;0.11;97.40;95918.75;4942530;28;20039;-68
2020/12/10 00:48:32;;;;;;;26.70;13.07;;;;;;;0.11;97.30;95908.78;4938020;28;20090;-68
2020/12/10 00:50:59;;;;;;;23.55;12.48;;;;;;;0.04;97.05;95913.84;4944904;28;20039;-68
2020/12/10 00:53:24;;;;;;;24.48;12.82;;;;;;;-0.12;96.50;95910.06;4939574;28;20933;-68
2020/12/10 00:55:50;;;;;;;24.60;11.88;;;;;;;-0.17;96.46;95902.13;4944160;28;20042;-66
2020/12/10 00:58:15;;;;;;;24.60;12.38;;;;;;;-0.17;96.57;95904.84;4938469;28;20130;-66
2020/12/10 01:00:41;;;;;;;24.17;12.32;;;;;;;-0.15;96.69;95899.91;4945747;28;20043;-67
2020/12/10 01:03:06;;;;;;;25.95;11.95;;;;;;;-0.12;96.66;95897.38;4951224;28;20122;-69
2020/12/10 01:05:31;;;;;;;23.95;12.55;;;;;;;-0.04;96.15;95895.78;4947469;28;20047;-66
2020/12/10 01:07:57;;;;;;;22.45;12.70;;;;;;;0.07;96.59;95893.56;4947270;28;20051;-67
2020/12/10 01:10:22;;;;;;;26.02;12.07;;;;;;;0.13;96.63;95895.78;4941468;28;20925;-67
2020/12/10 01:12:47;;;;;;;24.52;12.73;;;;;;;0.13;96.58;95886.94;4942033;28;20050;-68
2020/12/10 01:15:13;;;;;;;26.73;12.88;;;;;;;0.13;96.41;95882.31;4941528;28;20047;-67
2020/12/10 01:17:42;;;;;;;23.45;11.40;;;;;;;0.04;95.52;95875.34;4967177;28;20083;-67
2020/12/10 01:20:11;;;;;;;20.65;11.52;;;;;;;0.06;95.80;95873.16;4945836;28;20176;-66
2020/12/10 01:22:37;;;;;;;21.13;11.50;;;;;;;0.04;95.30;95867.28;4958415;28;20106;-67
2020/12/10 01:25:05;;;;;;;23.80;11.32;;;;;;;-0.03;95.42;95873.16;4944409;28;20043;-67
2020/12/10 01:27:30;;;;;;;21.55;10.57;;;;;;;0.02;95.85;95869.50;4945157;28;20138;-66
2020/12/10 01:29:55;;;;;;;20.20;10.52;;;;;;;0.09;95.79;95867.94;4944843;28;20051;-67
2020/12/10 01:32:23;;;;;;;22.30;11.57;;;;;;;0.02;95.56;95873.00;4940836;28;21244;-68
2020/12/10 01:34:48;;;;;;;23.00;11.27;;;;;;;-0.11;95.40;95868.56;4945780;28;20134;-66
2020/12/10 01:37:14;;;;;;;23.05;12.00;;;;;;;-0.22;95.70;95865.41;4941009;28;20134;-68
2020/12/10 01:39:39;;;;;;;26.58;13.13;;;;;;;-0.49;96.09;95864.59;4943554;28;20110;-67
2020/12/10 01:42:05;;;;;;;27.67;13.68;;;;;;;-0.60;97.55;95858.72;4938560;28;20043;-66
2020/12/10 01:44:30;;;;;;;29.15;13.55;;;;;;;-0.62;97.32;95860.94;4945008;28;20135;-67
2020/12/10 01:46:55;;;;;;;30.05;14.15;;;;;;;-0.63;98.10;95859.38;4945308;28;20051;-67
2020/12/10 01:49:21;;;;;;;36.05;15.02;;;;;;;-0.62;98.35;95858.25;4940417;28;20054;-67
2020/12/10 01:51:46;;;;;;;33.45;14.75;;;;;;;-0.61;98.19;95849.09;4945277;28;20047;-67
2020/12/10 01:54:12;;;;;;;31.65;15.23;;;;;;;-0.63;98.42;95851.31;4939739;28;20107;-69
2020/12/10 01:56:37;;;;;;;37.00;15.13;;;;;;;-0.63;98.30;95848.63;4942690;28;20131;-67
2020/12/10 01:59:04;;;;;;;40.67;15.73;;;;;;;-0.66;98.73;95841.19;4960873;28;20047;-67
2020/12/10 02:01:30;;;;;;;39.72;16.33;;;;;;;-0.66;98.54;95845.78;4964936;28;20055;-67
2020/12/10 02:03:57;;;;;;;39.60;16.70;;;;;;;-0.62;98.56;95847.50;4956773;28;20571;-68
2020/12/10 02:06:22;;;;;;;39.30;15.95;;;;;;;-0.56;98.60;95836.59;4940222;28;20051;-67
2020/12/10 02:08:48;;;;;;;35.65;16.27;;;;;;;-0.44;98.18;95842.94;4942855;28;20404;-67
2020/12/10 02:11:13;;;;;;;36.45;15.45;;;;;;;-0.28;98.41;95834.38;4938661;28;20050;-67
2020/12/10 02:13:39;;;;;;;32.08;15.35;;;;;;;-0.10;97.96;95824.41;4943366;28;20051;-67
2020/12/10 02:16:06;;;;;;;27.67;14.38;;;;;;;0.04;98.03;95818.81;4936723;28;20500;-68
2020/12/10 02:18:31;;;;;;;29.27;14.50;;;;;;;0.07;97.68;95815.47;4945024;28;20396;-67
2020/12/10 02:20:57;;;;;;;27.13;12.18;;;;;;;-0.26;97.12;95821.41;4944739;28;20039;-67
2020/12/10 02:23:23;;;;;;;25.45;12.93;;;;;;;-0.36;97.41;95817.16;4939920;28;20051;-67
2020/12/10 02:25:48;;;;;;;28.75;12.65;;;;;;;-0.33;97.17;95815.72;4945170;28;20463;-66
2020/12/10 02:28:15;;;;;;;25.10;12.07;;;;;;;-0.26;96.94;95816.03;4940179;28;20039;-67
2020/12/10 02:30:43;;;;;;;27.50;13.63;;;;;;;-0.10;97.61;95814.41;4943900;28;20043;-68
2020/12/10 02:33:10;;;;;;;24.30;12.20;;;;;;;-0.01;97.13;95807.09;4945299;28;20151;-66
2020/12/10 02:35:38;;;;;;;24.27;12.05;;;;;;;0.06;96.81;95812.00;4963566;28;20095;-67
2020/12/10 02:38:08;;;;;;;25.30;12.30;;;;;;;0.06;96.56;95809.31;4946276;28;20084;-69
2020/12/10 02:40:43;;;;;;;23.20;13.13;;;;;;;0.25;96.50;95797.38;4932163;28;20056;-68
2020/12/10 02:43:10;;;;;;;24.58;12.30;;;;;;;0.29;96.03;95792.91;4920762;28;20433;-66
2020/12/10 02:45:37;;;;;;;25.02;12.70;;;;;;;0.16;96.00;95786.63;4925790;28;20047;-66
2020/12/10 02:48:03;;;;;;;21.98;10.80;;;;;;;0.12;96.01;95785.69;4931284;28;20049;-66
2020/12/10 02:50:28;;;;;;;23.63;11.73;;;;;;;0.18;95.22;95782.53;4943068;28;20046;-67
2020/12/10 02:52:54;;;;;;;21.90;11.73;;;;;;;0.27;95.69;95776.28;4944222;28;20070;-64
2020/12/10 02:55:19;;;;;;;22.48;12.57;;;;;;;0.15;94.78;95772.38;4938354;28;20531;-67
2020/12/10 02:57:45;;;;;;;20.17;10.52;;;;;;;0.08;95.30;95757.84;4944038;28;20035;-66
2020/12/10 03:00:11;;;;;;;24.00;11.95;;;;;;;0.05;94.88;95763.88;4939210;28;20496;-67
2020/12/10 03:02:37;;;;;;;22.40;11.25;;;;;;;0.04;95.60;95760.38;4940903;28;20051;-67
2020/12/10 03:05:06;;;;;;;23.13;12.30;;;;;;;0.12;95.43;95764.16;4935746;28;20069;-67
2020/12/10 03:07:32;;;;;;;24.58;12.05;;;;;;;0.26;94.75;95753.19;4958591;28;20045;-66
2020/12/10 03:09:58;;;;;;;23.65;11.90;;;;;;;0.43;94.69;95747.69;4960655;28;20478;-67
2020/12/10 03:12:23;;;;;;;21.83;11.82;;;;;;;0.55;94.57;95750.50;4939690;28;20134;-66
2020/12/10 03:14:49;;;;;;;22.58;11.50;;;;;;;0.59;93.98;95747.94;4943739;28;20369;-66
2020/12/10 03:17:14;;;;;;;19.95;11.55;;;;;;;0.57;93.38;95744.78;4937308;28;20047;-66
2020/12/10 03:19:40;;;;;;;19.85;10.30;;;;;;;0.51;93.18;95738.03;4942528;28;20127;-64
2020/12/10 03:22:11;;;;;;;23.55;11.52;;;;;;;0.54;93.09;95740.03;4939245;28;20130;-66
2020/12/10 03:24:36;;;;;;;22.42;11.65;;;;;;;0.53;93.60;95736.56;4961474;28;20051;-68
2020/12/10 03:27:02;;;;;;;21.83;11.30;;;;;;;0.44;93.52;95727.75;4960609;28;20074;-67
2020/12/10 03:29:28;;;;;;;22.10;11.43;;;;;;;0.32;93.53;95722.25;4959702;28;20051;-66
2020/12/10 03:31:53;;;;;;;23.77;12.10;;;;;;;-0.05;94.29;95733.50;4962917;28;20101;-65
2020/12/10 03:34:21;;;;;;;24.27;11.38;;;;;;;-0.22;95.42;95723.56;4957760;28;20445;-66
2020/12/10 03:36:51;;;;;;;25.88;12.93;;;;;;;-0.17;95.63;95717.22;4961628;28;20864;-66
2020/12/10 03:39:20;;;;;;;26.70;14.57;;;;;;;-0.10;95.40;95714.03;4956200;28;20046;-67
2020/12/10 03:41:47;;;;;;;28.65;14.80;;;;;;;0.07;96.11;95705.09;4961974;28;20101;-65
2020/12/10 03:44:13;;;;;;;29.25;13.68;;;;;;;0.16;95.42;95713.91;4956706;28;20078;-67
2020/12/10 03:46:39;;;;;;;26.50;13.25;;;;;;;0.30;95.26;95701.03;4963507;28;20077;-65
2020/12/10 03:49:06;;;;;;;26.75;13.02;;;;;;;0.27;94.39;95698.19;4958414;28;20039;-68
2020/12/10 03:51:32;;;;;;;26.30;12.68;;;;;;;0.34;94.27;95698.47;4960556;28;20507;-68
2020/12/10 03:53:58;;;;;;;24.92;12.60;;;;;;;0.30;94.52;95690.25;4961290;28;20047;-67
2020/12/10 03:56:23;;;;;;;24.58;13.00;;;;;;;0.26;94.18;95685.84;4958708;28;20452;-67
2020/12/10 03:58:49;;;;;;;35.38;12.95;;;;;;;0.24;94.83;95688.88;4962594;28;20071;-67
2020/12/10 04:01:14;;;;;;;44.25;13.18;;;;;;;0.27;94.64;95688.22;4956964;28;20047;-66
2020/12/10 04:03:40;;;;;;;28.63;13.68;;;;;;;0.22;94.44;95691.09;4962773;28;20077;-67
2020/12/10 04:06:06;;;;;;;25.83;12.63;;;;;;;0.05;94.13;95685.78;4957981;28;20134;-66
2020/12/10 04:08:31;;;;;;;25.77;12.05;;;;;;;-0.06;94.64;95680.75;4962629;28;20042;-66
2020/12/10 04:10:57;;;;;;;26.10;13.07;;;;;;;-0.16;95.64;95686.50;4959971;28;20063;-67
2020/12/10 04:13:22;;;;;;;64.63;26.00;;;;;;;-0.23;95.52;95684.31;4946060;28;20740;-66
2020/12/10 04:15:47;;;;;;;31.27;14.98;;;;;;;-0.20;95.98;95672.91;4946001;28;20460;-67
2020/12/10 04:18:13;;;;;;;30.42;13.70;;;;;;;-0.14;95.90;95681.59;4938638;28;20094;-67
2020/12/10 04:20:38;;;;;;;35.40;15.43;;;;;;;-0.06;96.00;95669.97;4943644;28;20516;-65
2020/12/10 04:23:04;;;;;;;28.08;12.75;;;;;;;0.10;96.01;95672.94;4954430;28;20047;-68
2020/12/10 04:25:29;;;;;;;26.45;13.68;;;;;;;0.25;95.19;95671.59;4980273;28;20069;-67
2020/12/10 04:27:54;;;;;;;25.85;12.63;;;;;;;0.34;94.76;95675.03;4977473;28;20043;-65
2020/12/10 04:30:23;;;;;;;26.58;11.98;;;;;;;0.25;94.32;95676.97;4962212;28;20062;-67
2020/12/10 04:32:48;;;;;;;26.67;12.52;;;;;;;-0.15;94.98;95669.22;4965867;28;20077;-66
2020/12/10 04:35:14;;;;;;;27.40;13.80;;;;;;;-0.22;95.62;95677.81;4953020;28;20753;-65
2020/12/10 04:37:41;;;;;;;29.35;13.13;;;;;;;-0.32;96.59;95674.69;4945280;28;20086;-67
2020/12/10 04:40:07;;;;;;;31.50;13.27;;;;;;;-0.36;96.27;95674.53;4940385;28;20252;-68
2020/12/10 04:42:33;;;;;;;29.25;13.32;;;;;;;-0.40;96.66;95660.94;4945054;28;20081;-66
2020/12/10 04:44:58;;;;;;;29.90;13.40;;;;;;;-0.43;96.89;95658.09;4943175;28;20043;-65
2020/12/10 04:47:23;;;;;;;28.52;14.02;;;;;;;-0.46;97.01;95654.13;4942096;28;20115;-67
2020/12/10 04:49:54;;;;;;;31.25;14.35;;;;;;;-0.48;96.96;95655.59;4959255;28;20038;-68
2020/12/10 04:52:21;;;;;;;29.23;13.10;;;;;;;-0.35;97.11;95643.03;4945103;28;20047;-67
2020/12/10 04:54:48;;;;;;;31.95;14.98;;;;;;;-0.14;96.88;95649.28;4950136;28;20132;-66
2020/12/10 04:57:17;;;;;;;31.15;14.63;;;;;;;0.06;96.82;95649.69;4951585;28;20047;-67
2020/12/10 04:59:42;;;;;;;28.67;13.50;;;;;;;0.10;96.23;95647.91;4946446;28;20039;-67
2020/12/10 05:02:12;;;;;;;27.85;12.75;;;;;;;0.11;96.03;95649.47;4944668;28;20612;-68
2020/12/10 05:04:40;;;;;;;28.13;13.95;;;;;;;0.14;96.45;95640.75;4946348;28;20054;-67
2020/12/10 05:07:06;;;;;;;27.23;13.23;;;;;;;0.11;96.08;95634.13;4941980;28;20051;-68
2020/12/10 05:09:32;;;;;;;27.13;12.75;;;;;;;0.08;95.93;95634.00;4945872;28;20058;-67
2020/12/10 05:11:57;;;;;;;28.08;13.68;;;;;;;0.16;96.08;95646.59;4946144;28;20049;-67
2020/12/10 05:14:23;;;;;;;30.23;14.32;;;;;;;0.25;95.88;95635.78;4940472;28;20055;-66
2020/12/10 05:17:10;;;;;;;26.15;13.15;;;;;;;0.26;95.60;95630.06;4946076;28;20055;-66
2020/12/10 05:19:35;;;;;;;27.20;13.13;;;;;;;0.25;94.88;95625.00;4944381;28;20106;-66
2020/12/10 05:22:02;;;;;;;25.70;12.48;;;;;;;0.29;94.86;95626.75;4945440;28;20122;-65
2020/12/10 05:24:27;;;;;;;26.55;12.73;;;;;;;0.37;94.87;95622.41;4942089;28;20055;-67
2020/12/10 05:27:32;;;;;;;25.10;11.82;;;;;;;0.45;94.75;95626.16;4946415;28;20039;-66
2020/12/10 05:29:58;;;;;;;22.52;11.75;;;;;;;0.26;93.98;95623.91;4944941;28;20497;-65
2020/12/10 05:32:40;;;;;;;24.63;12.60;;;;;;;0.21;94.23;95622.19;4940772;28;20058;-67
2020/12/10 05:35:25;;;;;;;23.77;12.68;;;;;;;0.22;94.03;95615.69;4941334;28;20046;-67
2020/12/10 05:37:52;;;;;;;25.10;12.10;;;;;;;0.31;93.97;95621.81;4945224;28;20074;-66
2020/12/10 05:40:19;;;;;;;26.92;13.35;;;;;;;0.24;94.12;95620.75;4940702;28;20069;-67
2020/12/10 05:42:50;;;;;;;25.70;12.05;;;;;;;0.38;93.58;95629.38;4945747;28;20039;-66
2020/12/10 05:45:21;;;;;;;24.98;12.15;;;;;;;0.50;93.09;95620.56;4938452;28;20043;-66
2020/12/10 05:47:53;;;;;;;22.70;11.60;;;;;;;0.52;92.79;95613.75;4952834;28;20043;-65
2020/12/10 05:50:25;;;;;;;26.48;12.02;;;;;;;0.47;93.25;95605.88;4944580;28;20051;-65
2020/12/10 05:52:55;;;;;;;22.13;12.15;;;;;;;0.46;92.94;95611.56;4944728;28;20043;-67
2020/12/10 05:55:21;;;;;;;24.17;11.40;;;;;;;0.44;93.29;95609.22;4941420;28;20062;-66
2020/12/10 05:57:48;;;;;;;22.80;11.35;;;;;;;0.50;93.51;95612.50;4945214;28;20047;-66
2020/12/10 06:00:13;;;;;;;24.73;11.77;;;;;;;0.38;93.29;95605.94;4939353;28;20050;-66
2020/12/10 06:02:40;;;;;;;21.67;10.60;;;;;;;0.26;93.00;95613.13;4946308;28;20043;-65
2020/12/10 06:05:06;;;;;;;25.42;12.32;;;;;;;0.21;93.52;95614.09;4940911;28;20105;-69
2020/12/10 06:07:31;;;;;;;21.83;11.57;;;;;;;0.08;93.67;95617.84;4944682;28;20047;-66
2020/12/10 06:09:58;;;;;;;27.13;12.25;;;;;;;0.22;95.63;95607.63;4945708;28;20121;-68
2020/12/10 06:12:24;;;;;;;28.58;14.18;;;;;;;0.16;96.04;95604.31;4940786;28;20062;-67
2020/12/10 06:14:51;;;;;;;49.22;22.83;;;;;;;-0.05;95.47;95620.44;4945874;28;20527;-65
2020/12/10 06:17:16;;;;;;;29.75;15.25;;;;;;;-0.16;94.26;95621.91;4941021;28;20047;-65
2020/12/10 06:19:42;;;;;;;25.92;13.55;;;;;;;-0.25;94.81;95611.19;4945019;28;20626;-67
2020/12/10 06:22:30;;;;;;;28.65;13.63;;;;;;;-0.30;94.88;95622.13;4939131;28;20061;-67
2020/12/10 06:24:59;;;;;;;29.70;13.68;;;;;;;-0.37;95.94;95610.28;4943014;28;20055;-66
2020/12/10 06:27:29;;;;;;;29.38;13.45;;;;;;;-0.56;96.18;95607.97;4939730;28;20074;-66
2020/12/10 06:30:17;;;;;;;24.27;12.18;;;;;;;-0.61;95.84;95604.34;4944241;28;20047;-64
2020/12/10 06:32:48;;;;;;;26.50;12.70;;;;;;;-0.60;95.31;95600.53;4946493;28;20138;-66
2020/12/10 06:35:32;;;;;;;27.75;12.32;;;;;;;-0.58;94.49;95608.28;4941922;28;20047;-68
2020/12/10 06:37:58;;;;;;;25.23;11.23;;;;;;;-0.60;94.00;95603.22;4944971;28;20050;-66
2020/12/10 06:40:29;;;;;;;23.80;11.57;;;;;;;-0.61;94.33;95598.97;4940917;28;20446;-66
2020/12/10 06:42:54;;;;;;;24.30;11.82;;;;;;;-0.61;94.11;95590.91;4945281;28;20086;-65
2020/12/10 06:45:28;;;;;;;24.42;11.90;;;;;;;-0.60;93.94;95605.13;4941203;28;20540;-67
2020/12/10 06:47:53;;;;;;;23.70;11.18;;;;;;;-0.58;93.69;95605.59;4964037;28;20058;-65
2020/12/10 06:50:30;;;;;;;26.67;11.73;;;;;;;-0.55;93.35;95613.03;4960343;28;20035;-66
2020/12/10 06:53:21;;;;;;;38.85;17.38;;;;;;;-0.55;93.54;95606.88;4964568;28;20555;-68
2020/12/10 06:55:59;;;;;;;31.23;14.65;;;;;;;-0.56;93.80;95616.81;4955988;28;20059;-67
2020/12/10 06:58:41;;;;;;;33.60;14.95;;;;;;;-0.58;93.81;95616.34;4947927;28;20612;-65
2020/12/10 07:01:26;;;;;;;38.80;16.65;;;;;;;-0.60;94.09;95611.28;4943252;28;20062;-67
2020/12/10 07:03:56;;;;;;;41.03;17.73;;;;;;;-0.63;93.66;95603.06;4965626;28;20043;-68
2020/12/10 07:06:22;;;;;;;31.50;14.55;;;;;;;-0.62;93.19;95615.44;4947656;28;20514;-66
2020/12/10 07:09:03;;;;;;;31.08;14.93;;;;;;;-0.59;92.80;95612.88;4943825;28;20039;-66
2020/12/10 07:11:32;;;;;;;30.77;16.05;;;;;;;-0.59;92.87;95620.16;4936665;28;20051;-67
2020/12/10 07:13:59;;;;;;;30.73;12.65;;;;;;;-0.60;92.53;95618.59;4943655;28;20039;-67
2020/12/10 07:16:29;;;;;;;32.85;14.52;;;;;;;-0.63;92.45;95624.59;4940324;28;20043;-65
2020/12/10 07:18:55;;;;;;;31.95;14.85;;;;;;;-0.64;92.81;95626.50;4943294;28;20401;-67
2020/12/10 07:21:22;;;;;;;33.70;14.88;;;;;;;-0.67;93.50;95629.03;4938989;28;20046;-66
2020/12/10 07:23:48;;;;;;;35.40;14.73;;;;;;;-0.66;93.04;95628.72;4944105;28;20082;-66
2020/12/10 07:26:13;;;;;;;29.85;13.95;;;;;;;-0.66;92.66;95636.78;4934250;28;20059;-68
2020/12/10 07:28:39;;;;;;;31.73;14.20;;;;;;;-0.65;92.77;95632.19;4947006;28;20039;-67
2020/12/10 07:31:13;;;;;;;31.10;14.23;;;;;;;-0.63;92.60;95629.97;4936720;28;20046;-68
2020/12/10 07:33:39;;;;;;;31.67;14.77;;;;;;;-0.65;92.22;95634.88;4943631;28;20047;-66
2020/12/10 07:36:07;;;;;;;28.75;13.65;;;;;;;-0.67;92.64;95629.81;4939690;28;20058;-70
2020/12/10 07:38:33;;;;;;;27.30;12.83;;;;;;;-0.65;92.60;95616.06;4942554;28;20051;-67
2020/12/10 07:40:59;;;;;;;28.92;12.98;;;;;;;-0.66;92.53;95612.59;4939312;28;20310;-67
2020/12/10 07:43:26;;;;;;;28.40;12.77;;;;;;;-0.63;92.55;95611.16;4935587;28;20206;-66
2020/12/10 07:45:52;;;;;;;27.02;11.93;;;;;;;-0.60;92.57;95616.66;4942501;28;20043;-67
2020/12/10 07:48:18;;;;;;;31.17;15.35;;;;;;;-0.59;91.38;95615.56;4938144;28;20501;-68
2020/12/10 07:50:47;;;;;;;33.72;16.75;;;;;;;-0.55;91.88;95607.66;4944820;28;20133;-67
2020/12/10 07:53:13;;;;;;;44.67;22.70;;;;;;;-0.53;90.94;95605.44;4937399;28;20062;-66
2020/12/10 07:55:54;;;;;;;33.40;15.43;;;;;;;-0.55;91.57;95613.03;4942974;28;20496;-68
2020/12/10 07:58:33;;;;;;;31.42;14.57;;;;;;;-0.56;91.55;95608.75;4937892;28;20062;-66
2020/12/10 08:01:01;;;;;;;;;;;;;;;-0.55;90.81;95609.56;4941620;28;20773;-65
2020/12/10 08:03:37;;;;;;;28.88;14.25;;;;;;;-0.54;91.26;95603.88;4939065;28;19923;-65
2020/12/10 08:06:07;;;;;;;29.85;15.45;;;;;;;-0.54;90.74;95605.75;4939305;28;20575;-71
2020/12/10 08:08:37;;;;;;;;;;;;;;;-0.52;90.82;95612.41;4941740;28;20090;-66
2020/12/10 08:11:06;;;;;;;27.23;13.75;;;;;;;-0.51;90.51;95608.59;4939066;28;19929;-69
2020/12/10 08:13:32;;;;;;;28.60;13.57;;;;;;;-0.50;91.10;95615.56;4943513;28;20053;-65
2020/12/10 08:16:06;;;;;;;32.15;15.30;;;;;;;-0.46;91.09;95619.16;4941371;28;20564;-67
2020/12/10 08:18:31;;;;;;;26.45;12.13;;;;;;;-0.44;90.87;95618.84;4944259;28;20126;-67
2020/12/10 08:20:57;;;;;;;30.08;18.10;;;;;;;-0.43;90.85;95609.69;4942510;28;20640;-67
2020/12/10 08:23:22;;;;;;;32.42;18.50;;;;;;;-0.39;90.33;95613.31;4936902;28;20059;-68
2020/12/10 08:26:07;;;;;;;25.92;13.48;;;;;;;-0.38;90.25;95604.09;4941516;28;20043;-67
2020/12/10 08:28:32;;;;;;;21.67;11.30;;;;;;;-0.36;90.26;95604.59;4940508;28;20500;-68
2020/12/10 08:30:58;;;;;;;20.25;10.80;;;;;;;-0.41;89.61;95608.25;4939978;28;20057;-65
2020/12/10 08:33:33;;;;;;;23.25;11.45;;;;;;;-0.38;89.86;95614.88;4936018;28;20543;-66
2020/12/10 08:35:58;;;;;;;24.05;12.90;;;;;;;-0.33;90.17;95617.38;4942536;28;20050;-65
2020/12/10 08:38:24;;;;;;;21.70;10.15;;;;;;;-0.32;88.80;95607.44;4936953;28;20400;-65
2020/12/10 08:40:55;;;;;;;18.95;10.18;;;;;;;-0.28;88.94;95611.03;4945106;28;20058;-66
2020/12/10 08:43:20;;;;;;;17.80;9.77;;;;;;;-0.14;89.28;95610.84;4937569;28;20075;-66
2020/12/10 08:45:46;;;;;;;20.10;10.90;;;;;;;-0.21;87.33;95612.09;4941459;28;20145;-66
2020/12/10 08:48:14;;;;;;;27.77;16.25;;;;;;;-0.17;87.60;95611.47;4937970;28;20054;-67
2020/12/10 08:51:09;;;;;;;20.25;10.63;;;;;;;-0.03;87.99;95612.03;4941499;28;20055;-67
2020/12/10 08:53:34;;;;;;;22.13;10.77;;;;;;;0.02;87.85;95616.44;4935202;28;20059;-68
2020/12/10 08:56:00;;;;;;;23.02;13.02;;;;;;;-0.03;86.93;95610.13;4941810;28;20043;-67
2020/12/10 08:58:28;;;;;;;18.20;10.75;;;;;;;0.07;86.56;95614.34;4937154;28;20126;-66
2020/12/10 09:00:56;;;;;;;21.50;11.25;;;;;;;0.05;86.28;95597.72;4942172;28;20039;-67
2020/12/10 09:03:22;;;;;;;18.13;9.32;;;;;;;0.12;86.54;95607.97;4936152;28;20360;-67
2020/12/10 09:05:49;;;;;;;17.45;8.77;;;;;;;0.14;85.55;95603.06;4941476;28;20054;-67
2020/12/10 09:08:14;;;;;;;16.83;8.73;;;;;;;0.21;86.47;95610.63;4937153;28;20750;-67
2020/12/10 09:10:40;;;;;;;16.95;9.75;;;;;;;0.03;85.87;95612.63;4959693;28;20039;-68
2020/12/10 09:13:06;;;;;;;20.88;10.05;;;;;;;0.20;85.96;95601.78;4957968;28;20050;-70
2020/12/10 09:15:32;;;;;;;16.17;8.30;;;;;;;0.24;85.47;95607.28;4951117;28;20106;-66
2020/12/10 09:17:57;;;;;;;16.27;9.13;;;;;;;0.23;84.67;95611.09;4947875;28;20501;-65
2020/12/10 09:20:23;;;;;;;16.45;8.50;;;;;;;0.23;85.75;95613.78;4938618;28;20533;-66
2020/12/10 09:22:49;;;;;;;16.75;8.55;;;;;;;0.14;85.55;95603.84;4943152;28;20079;-67
2020/12/10 09:25:14;;;;;;;14.75;7.03;;;;;;;0.16;85.16;95604.31;4945712;28;20047;-68
2020/12/10 09:27:40;;;;;;;15.32;7.72;;;;;;;0.14;85.29;95611.13;4945428;28;20074;-69
2020/12/10 09:30:07;;;;;;;14.27;8.27;;;;;;;0.18;85.23;95603.97;4940185;28;20035;-66
2020/12/10 09:32:34;;;;;;;14.23;8.23;;;;;;;0.24;85.09;95610.78;4944113;28;20051;-66
2020/12/10 09:35:06;;;;;;;14.45;7.78;;;;;;;0.28;85.19;95613.59;4945195;28;20106;-68
2020/12/10 09:37:34;;;;;;;12.65;7.03;;;;;;;0.33;84.38;95611.50;4943633;28;20055;-67
2020/12/10 09:39:59;;;;;;;19.02;12.15;;;;;;;0.38;84.51;95613.22;4944569;28;20491;-67
2020/12/10 09:42:25;;;;;;;20.15;10.38;;;;;;;0.50;84.86;95613.28;4939467;28;20146;-67
2020/12/10 09:44:50;;;;;;;17.00;8.25;;;;;;;0.53;83.63;95614.53;4943825;28;20142;-67
2020/12/10 09:47:16;;;;;;;12.70;7.05;;;;;;;0.51;83.07;95611.38;4942531;28;20126;-66
2020/12/10 09:49:41;;;;;;;15.35;7.68;;;;;;;0.50;83.17;95613.28;4945759;28;20392;-67
2020/12/10 09:52:08;;;;;;;20.20;10.75;;;;;;;0.63;83.05;95613.34;4941190;28;20069;-65
2020/12/10 09:54:53;;;;;;;16.00;9.25;;;;;;;0.54;82.57;95613.41;4946252;28;20054;-66
2020/12/10 09:57:34;;;;;;;13.80;7.10;;;;;;;0.70;83.95;95608.22;4940015;28;20145;-65
2020/12/10 10:00:08;;;;;;;17.25;11.15;;;;;;;0.54;81.56;95608.81;4945748;28;20511;-65
2020/12/10 10:02:33;;;;;;;11.80;7.05;;;;;;;0.71;82.76;95602.50;4943347;28;20134;-66
2020/12/10 10:04:58;;;;;;;15.75;7.20;;;;;;;0.73;82.80;95599.47;4944004;28;20197;-66
2020/12/10 10:07:24;;;;;;;14.23;7.28;;;;;;;0.92;80.44;95591.72;4937105;28;20137;-68
2020/12/10 10:09:50;;;;;;;13.07;7.00;;;;;;;0.76;80.20;95599.63;4944204;28;20043;-68
2020/12/10 10:12:16;;;;;;;13.27;6.65;;;;;;;0.81;81.30;95598.63;4935016;28;20035;-66
2020/12/10 10:14:42;;;;;;;14.35;6.38;;;;;;;1.13;82.33;95594.38;4944363;28;20098;-66
2020/12/10 10:17:09;;;;;;;15.00;7.10;;;;;;;1.41;80.14;95592.97;4938392;28;20058;-67
2020/12/10 10:19:35;;;;;;;17.48;7.45;;;;;;;1.66;79.36;95596.50;4941899;28;20047;-67
2020/12/10 10:22:01;;;;;;;13.65;6.65;;;;;;;1.75;77.86;95588.28;4944406;28;20514;-66
2020/12/10 10:24:26;;;;;;;18.73;9.50;;;;;;;1.66;78.27;95586.47;4939928;28;20048;-66
2020/12/10 10:26:52;;;;;;;15.43;7.93;;;;;;;1.84;78.22;95576.25;4950505;28;20055;-67
2020/12/10 10:29:21;;;;;;;12.88;6.50;;;;;;;2.01;78.28;95577.16;4956402;28;20054;-68
2020/12/10 10:31:51;;;;;;;12.55;6.57;;;;;;;1.71;78.53;95575.47;4961296;28;20074;-67
2020/12/10 10:34:17;;;;;;;14.35;6.97;;;;;;;1.45;79.40;95577.69;4938711;28;20039;-68
2020/12/10 10:36:42;;;;;;;12.55;6.53;;;;;;;1.29;80.10;95575.63;4943704;28;20039;-68
2020/12/10 10:39:08;;;;;;;12.82;6.20;;;;;;;1.48;79.50;95574.31;4939564;28;20047;-67
2020/12/10 10:41:48;;;;;;;12.23;6.85;;;;;;;1.59;78.72;95566.59;4944741;28;20047;-66
2020/12/10 10:44:14;;;;;;;13.38;6.72;;;;;;;1.32;80.44;95569.56;4937812;28;20445;-67
2020/12/10 10:46:39;;;;;;;15.27;7.93;;;;;;;1.43;79.97;95569.91;4943957;28;20066;-66
2020/12/10 10:49:05;;;;;;;13.32;6.82;;;;;;;1.41;79.24;95566.00;4939259;28;20075;-67
2020/12/10 10:51:31;;;;;;;14.27;7.43;;;;;;;1.23;80.45;95563.47;4943668;28;20576;-65
2020/12/10 10:53:56;;;;;;;15.98;7.47;;;;;;;1.30;79.38;95562.94;4944199;28;20057;-68
2020/12/10 10:56:23;;;;;;;14.10;7.38;;;;;;;1.48;79.46;95569.72;4937795;28;20066;-67
2020/12/10 10:58:49;;;;;;;15.02;7.95;;;;;;;1.24;79.03;95562.38;4942729;28;20453;-67
2020/12/10 11:01:15;;;;;;;12.05;6.85;;;;;;;1.19;79.72;95565.28;4936878;28;20130;-66
2020/12/10 11:03:41;;;;;;;15.02;7.15;;;;;;;1.25;80.50;95565.84;4943390;28;20051;-66
2020/12/10 11:06:08;;;;;;;16.30;7.32;;;;;;;1.63;78.96;95559.38;4937363;28;20527;-66
2020/12/10 11:08:34;;;;;;;15.20;8.00;;;;;;;1.79;78.88;95562.97;4940604;28;20452;-66
2020/12/10 11:10:59;;;;;;;15.73;7.38;;;;;;;1.42;79.56;95565.63;4943514;28;20050;-66
2020/12/10 11:13:25;;;;;;;15.95;7.63;;;;;;;1.47;78.53;95562.72;4938553;28;20109;-66
2020/12/10 11:15:50;;;;;;;15.77;7.75;;;;;;;1.22;80.13;95561.13;4944570;28;20043;-65
2020/12/10 11:18:15;;;;;;;13.18;6.93;;;;;;;1.12;79.64;95560.41;4939213;28;20035;-66
2020/12/10 11:20:41;;;;;;;12.40;6.30;;;;;;;1.21;79.69;95559.56;4944229;28;20409;-67
2020/12/10 11:23:07;;;;;;;13.88;7.65;;;;;;;1.18;79.69;95557.50;4937732;28;20047;-69
2020/12/10 11:25:32;;;;;;;12.18;6.35;;;;;;;1.21;79.27;95556.84;4942861;28;20082;-65
2020/12/10 11:27:57;;;;;;;13.25;7.05;;;;;;;1.00;79.94;95554.22;4942785;28;20135;-65